sensor_id;sensor_type;location;lat;lon;timestamp;P1;durP1;ratioP1;P2;durP2;ratioP2
41305;SDS011;27051;50.376;19.152;2022-08-01T00:00:06;7.08;;;4.60;;
41305;SDS011;27051;50.376;19.152;2022-08-01T00:02:37;7.30;;;4.75;;
41305;SDS011;27051;50.376;19.152;2022-08-01T00:05:05;12.40;;;4.72;;
41305;SDS011;27051;50.376;19.152;2022-08-01T00:07:35;6.17;;;4.30;;
41305;SDS011;27051;50.376;19.152;2022-08-01T00:10:03;9.20;;;4.35;;
41305;SDS011;27051;50.376;19.152;2022-08-01T00:12:37;8.95;;;4.55;;
41305;SDS011;27051;50.376;19.152;2022-08-01T00:15:06;12.55;;;4.65;;
41305;SDS011;27051;50.376;19.152;2022-08-01T00:17:36;8.95;;;5.05;;
41305;SDS011;27051;50.376;19.152;2022-08-01T00:20:05;7.70;;;4.62;;
41305;SDS011;27051;50.376;19.152;2022-08-01T00:25:03;13.30;;;5.70;;
41305;SDS011;27051;50.376;19.152;2022-08-01T00:27:32;10.95;;;5.67;;
41305;SDS011;27051;50.376;19.152;2022-08-01T00:29:59;9.13;;;5.53;;
41305;SDS011;27051;50.376;19.152;2022-08-01T00:32:25;10.15;;;6.17;;
41305;SDS011;27051;50.376;19.152;2022-08-01T00:34:52;13.32;;;6.37;;
41305;SDS011;27051;50.376;19.152;2022-08-01T00:37:19;13.50;;;6.05;;
41305;SDS011;27051;50.376;19.152;2022-08-01T00:39:45;11.50;;;5.50;;
41305;SDS011;27051;50.376;19.152;2022-08-01T00:42:12;10.80;;;5.37;;
41305;SDS011;27051;50.376;19.152;2022-08-01T00:44:39;12.00;;;6.28;;
41305;SDS011;27051;50.376;19.152;2022-08-01T00:47:07;12.07;;;5.95;;
41305;SDS011;27051;50.376;19.152;2022-08-01T00:49:34;11.83;;;5.78;;
41305;SDS011;27051;50.376;19.152;2022-08-01T00:52:02;11.15;;;5.60;;
41305;SDS011;27051;50.376;19.152;2022-08-01T00:54:31;10.13;;;5.87;;
41305;SDS011;27051;50.376;19.152;2022-08-01T00:56:58;9.45;;;5.42;;
41305;SDS011;27051;50.376;19.152;2022-08-01T00:59:26;12.93;;;5.70;;
41305;SDS011;27051;50.376;19.152;2022-08-01T01:01:53;11.50;;;6.12;;
41305;SDS011;27051;50.376;19.152;2022-08-01T01:04:21;14.35;;;6.70;;
41305;SDS011;27051;50.376;19.152;2022-08-01T01:06:52;16.17;;;6.65;;
41305;SDS011;27051;50.376;19.152;2022-08-01T01:12:29;15.72;;;7.33;;
41305;SDS011;27051;50.376;19.152;2022-08-01T01:15:21;18.23;;;9.08;;
41305;SDS011;27051;50.376;19.152;2022-08-01T01:20:52;23.15;;;10.18;;
41305;SDS011;27051;50.376;19.152;2022-08-01T01:26:29;18.92;;;10.13;;
41305;SDS011;27051;50.376;19.152;2022-08-01T01:31:56;17.75;;;9.20;;
41305;SDS011;27051;50.376;19.152;2022-08-01T01:34:31;23.80;;;11.03;;
41305;SDS011;27051;50.376;19.152;2022-08-01T01:37:02;20.77;;;10.95;;
41305;SDS011;27051;50.376;19.152;2022-08-01T01:39:33;24.95;;;11.60;;
41305;SDS011;27051;50.376;19.152;2022-08-01T01:42:04;21.52;;;10.58;;
41305;SDS011;27051;50.376;19.152;2022-08-01T01:44:32;21.48;;;10.63;;
41305;SDS011;27051;50.376;19.152;2022-08-01T01:47:02;25.43;;;11.05;;
41305;SDS011;27051;50.376;19.152;2022-08-01T01:49:31;22.58;;;10.65;;
41305;SDS011;27051;50.376;19.152;2022-08-01T01:52:00;23.42;;;10.58;;
41305;SDS011;27051;50.376;19.152;2022-08-01T01:54:35;26.90;;;11.68;;
41305;SDS011;27051;50.376;19.152;2022-08-01T01:57:05;21.93;;;10.68;;
41305;SDS011;27051;50.376;19.152;2022-08-01T01:59:36;24.55;;;11.57;;
41305;SDS011;27051;50.376;19.152;2022-08-01T02:02:05;25.65;;;11.65;;
41305;SDS011;27051;50.376;19.152;2022-08-01T02:04:40;22.98;;;11.93;;
41305;SDS011;27051;50.376;19.152;2022-08-01T02:07:09;21.93;;;10.78;;
41305;SDS011;27051;50.376;19.152;2022-08-01T02:09:40;22.82;;;10.90;;
41305;SDS011;27051;50.376;19.152;2022-08-01T02:12:10;20.23;;;10.50;;
41305;SDS011;27051;50.376;19.152;2022-08-01T02:14:38;21.73;;;10.98;;
41305;SDS011;27051;50.376;19.152;2022-08-01T02:17:09;22.13;;;10.43;;
41305;SDS011;27051;50.376;19.152;2022-08-01T02:19:38;21.50;;;9.93;;
41305;SDS011;27051;50.376;19.152;2022-08-01T02:22:14;21.15;;;9.63;;
41305;SDS011;27051;50.376;19.152;2022-08-01T02:24:50;19.50;;;9.08;;
41305;SDS011;27051;50.376;19.152;2022-08-01T02:27:42;18.70;;;9.50;;
41305;SDS011;27051;50.376;19.152;2022-08-01T02:30:14;15.95;;;8.78;;
41305;SDS011;27051;50.376;19.152;2022-08-01T02:32:49;18.92;;;9.00;;
41305;SDS011;27051;50.376;19.152;2022-08-01T02:35:35;19.48;;;8.40;;
41305;SDS011;27051;50.376;19.152;2022-08-01T02:38:09;18.25;;;8.28;;
41305;SDS011;27051;50.376;19.152;2022-08-01T02:40:38;14.63;;;6.70;;
41305;SDS011;27051;50.376;19.152;2022-08-01T02:43:08;14.00;;;7.15;;
41305;SDS011;27051;50.376;19.152;2022-08-01T02:45:37;12.75;;;6.17;;
41305;SDS011;27051;50.376;19.152;2022-08-01T02:48:09;11.10;;;6.45;;
41305;SDS011;27051;50.376;19.152;2022-08-01T02:50:40;10.88;;;5.60;;
41305;SDS011;27051;50.376;19.152;2022-08-01T02:53:12;12.20;;;6.05;;
41305;SDS011;27051;50.376;19.152;2022-08-01T02:55:41;13.80;;;6.00;;
41305;SDS011;27051;50.376;19.152;2022-08-01T02:58:10;13.75;;;7.40;;
41305;SDS011;27051;50.376;19.152;2022-08-01T03:00:42;11.97;;;6.22;;
41305;SDS011;27051;50.376;19.152;2022-08-01T03:03:11;24.63;;;6.45;;
41305;SDS011;27051;50.376;19.152;2022-08-01T03:05:40;13.45;;;6.53;;
41305;SDS011;27051;50.376;19.152;2022-08-01T03:08:09;13.10;;;6.15;;
41305;SDS011;27051;50.376;19.152;2022-08-01T03:10:38;11.18;;;6.28;;
41305;SDS011;27051;50.376;19.152;2022-08-01T03:13:07;17.05;;;6.70;;
41305;SDS011;27051;50.376;19.152;2022-08-01T03:15:38;11.88;;;6.00;;
41305;SDS011;27051;50.376;19.152;2022-08-01T03:18:07;14.78;;;6.15;;
41305;SDS011;27051;50.376;19.152;2022-08-01T03:20:37;12.45;;;6.10;;
41305;SDS011;27051;50.376;19.152;2022-08-01T03:23:05;9.20;;;5.25;;
41305;SDS011;27051;50.376;19.152;2022-08-01T03:25:36;9.70;;;5.58;;
41305;SDS011;27051;50.376;19.152;2022-08-01T03:28:08;10.93;;;4.95;;
41305;SDS011;27051;50.376;19.152;2022-08-01T03:30:38;7.35;;;4.22;;
41305;SDS011;27051;50.376;19.152;2022-08-01T03:33:07;6.15;;;4.33;;
41305;SDS011;27051;50.376;19.152;2022-08-01T03:35:47;12.90;;;4.72;;
41305;SDS011;27051;50.376;19.152;2022-08-01T03:38:13;10.55;;;4.85;;
41305;SDS011;27051;50.376;19.152;2022-08-01T03:40:47;6.90;;;4.00;;
41305;SDS011;27051;50.376;19.152;2022-08-01T03:43:22;7.72;;;4.20;;
41305;SDS011;27051;50.376;19.152;2022-08-01T03:45:52;7.25;;;4.35;;
41305;SDS011;27051;50.376;19.152;2022-08-01T03:48:21;14.38;;;5.50;;
41305;SDS011;27051;50.376;19.152;2022-08-01T03:50:51;10.18;;;4.35;;
41305;SDS011;27051;50.376;19.152;2022-08-01T03:53:23;12.03;;;5.00;;
41305;SDS011;27051;50.376;19.152;2022-08-01T03:55:52;9.10;;;4.55;;
41305;SDS011;27051;50.376;19.152;2022-08-01T03:58:32;11.53;;;5.03;;
41305;SDS011;27051;50.376;19.152;2022-08-01T04:01:02;12.05;;;5.15;;
41305;SDS011;27051;50.376;19.152;2022-08-01T04:03:32;10.63;;;5.67;;
41305;SDS011;27051;50.376;19.152;2022-08-01T04:06:00;9.10;;;5.53;;
41305;SDS011;27051;50.376;19.152;2022-08-01T04:08:36;9.75;;;4.70;;
41305;SDS011;27051;50.376;19.152;2022-08-01T04:11:07;7.30;;;4.78;;
41305;SDS011;27051;50.376;19.152;2022-08-01T04:13:35;13.65;;;5.92;;
41305;SDS011;27051;50.376;19.152;2022-08-01T04:16:02;10.38;;;6.00;;
41305;SDS011;27051;50.376;19.152;2022-08-01T04:18:30;9.45;;;5.40;;
41305;SDS011;27051;50.376;19.152;2022-08-01T04:20:57;8.80;;;5.92;;
41305;SDS011;27051;50.376;19.152;2022-08-01T04:23:24;8.35;;;5.40;;
41305;SDS011;27051;50.376;19.152;2022-08-01T04:25:54;11.20;;;6.75;;
41305;SDS011;27051;50.376;19.152;2022-08-01T04:28:23;10.50;;;5.47;;
41305;SDS011;27051;50.376;19.152;2022-08-01T04:30:52;10.95;;;5.78;;
41305;SDS011;27051;50.376;19.152;2022-08-01T04:33:21;7.20;;;5.12;;
41305;SDS011;27051;50.376;19.152;2022-08-01T04:35:49;10.95;;;6.20;;
41305;SDS011;27051;50.376;19.152;2022-08-01T04:38:19;14.53;;;7.03;;
41305;SDS011;27051;50.376;19.152;2022-08-01T04:40:48;13.67;;;6.33;;
41305;SDS011;27051;50.376;19.152;2022-08-01T04:43:17;14.73;;;6.72;;
41305;SDS011;27051;50.376;19.152;2022-08-01T04:45:44;16.90;;;6.83;;
41305;SDS011;27051;50.376;19.152;2022-08-01T04:48:15;17.48;;;7.62;;
41305;SDS011;27051;50.376;19.152;2022-08-01T04:50:43;12.85;;;6.70;;
41305;SDS011;27051;50.376;19.152;2022-08-01T04:53:13;14.80;;;7.15;;
41305;SDS011;27051;50.376;19.152;2022-08-01T04:55:43;15.85;;;7.75;;
41305;SDS011;27051;50.376;19.152;2022-08-01T04:58:12;15.05;;;7.45;;
41305;SDS011;27051;50.376;19.152;2022-08-01T05:00:42;18.98;;;7.62;;
41305;SDS011;27051;50.376;19.152;2022-08-01T05:03:08;14.47;;;8.18;;
41305;SDS011;27051;50.376;19.152;2022-08-01T05:05:35;14.68;;;6.87;;
41305;SDS011;27051;50.376;19.152;2022-08-01T05:08:01;20.08;;;7.50;;
41305;SDS011;27051;50.376;19.152;2022-08-01T05:10:28;13.00;;;7.03;;
41305;SDS011;27051;50.376;19.152;2022-08-01T05:12:55;12.35;;;7.25;;
41305;SDS011;27051;50.376;19.152;2022-08-01T05:15:22;10.82;;;5.97;;
41305;SDS011;27051;50.376;19.152;2022-08-01T05:17:48;12.65;;;5.60;;
41305;SDS011;27051;50.376;19.152;2022-08-01T05:20:15;10.90;;;6.53;;
41305;SDS011;27051;50.376;19.152;2022-08-01T05:22:41;13.60;;;6.67;;
41305;SDS011;27051;50.376;19.152;2022-08-01T05:25:08;15.95;;;6.20;;
41305;SDS011;27051;50.376;19.152;2022-08-01T05:27:35;13.05;;;6.65;;
41305;SDS011;27051;50.376;19.152;2022-08-01T05:30:01;11.35;;;6.65;;
41305;SDS011;27051;50.376;19.152;2022-08-01T05:32:29;11.95;;;6.78;;
41305;SDS011;27051;50.376;19.152;2022-08-01T05:34:56;10.48;;;7.08;;
41305;SDS011;27051;50.376;19.152;2022-08-01T05:37:22;10.93;;;7.15;;
41305;SDS011;27051;50.376;19.152;2022-08-01T05:39:49;12.43;;;7.42;;
41305;SDS011;27051;50.376;19.152;2022-08-01T05:42:15;11.55;;;7.42;;
41305;SDS011;27051;50.376;19.152;2022-08-01T05:44:42;13.00;;;7.45;;
41305;SDS011;27051;50.376;19.152;2022-08-01T05:47:09;14.70;;;7.97;;
41305;SDS011;27051;50.376;19.152;2022-08-01T05:49:35;12.90;;;7.87;;
41305;SDS011;27051;50.376;19.152;2022-08-01T05:52:02;13.50;;;8.25;;
41305;SDS011;27051;50.376;19.152;2022-08-01T05:54:29;12.82;;;8.00;;
41305;SDS011;27051;50.376;19.152;2022-08-01T05:56:56;14.07;;;8.18;;
41305;SDS011;27051;50.376;19.152;2022-08-01T05:59:22;15.00;;;8.85;;
41305;SDS011;27051;50.376;19.152;2022-08-01T06:01:49;14.55;;;8.58;;
41305;SDS011;27051;50.376;19.152;2022-08-01T06:04:16;14.15;;;9.20;;
41305;SDS011;27051;50.376;19.152;2022-08-01T06:06:42;15.55;;;9.50;;
41305;SDS011;27051;50.376;19.152;2022-08-01T06:09:09;16.17;;;9.70;;
41305;SDS011;27051;50.376;19.152;2022-08-01T06:11:39;16.20;;;10.08;;
41305;SDS011;27051;50.376;19.152;2022-08-01T06:14:06;18.12;;;9.73;;
41305;SDS011;27051;50.376;19.152;2022-08-01T06:16:33;16.75;;;9.78;;
41305;SDS011;27051;50.376;19.152;2022-08-01T06:19:00;15.83;;;9.68;;
41305;SDS011;27051;50.376;19.152;2022-08-01T06:21:27;15.40;;;8.65;;
41305;SDS011;27051;50.376;19.152;2022-08-01T06:23:53;15.28;;;8.20;;
41305;SDS011;27051;50.376;19.152;2022-08-01T06:26:20;16.48;;;9.60;;
41305;SDS011;27051;50.376;19.152;2022-08-01T06:28:47;16.12;;;8.30;;
41305;SDS011;27051;50.376;19.152;2022-08-01T06:31:13;15.18;;;8.90;;
41305;SDS011;27051;50.376;19.152;2022-08-01T06:33:40;17.52;;;8.43;;
41305;SDS011;27051;50.376;19.152;2022-08-01T06:36:07;17.67;;;10.00;;
41305;SDS011;27051;50.376;19.152;2022-08-01T06:38:34;20.55;;;10.70;;
41305;SDS011;27051;50.376;19.152;2022-08-01T06:41:00;20.17;;;10.80;;
41305;SDS011;27051;50.376;19.152;2022-08-01T06:43:27;18.15;;;10.88;;
41305;SDS011;27051;50.376;19.152;2022-08-01T06:45:54;19.15;;;11.25;;
41305;SDS011;27051;50.376;19.152;2022-08-01T06:48:21;23.12;;;12.05;;
41305;SDS011;27051;50.376;19.152;2022-08-01T06:50:48;17.55;;;10.58;;
41305;SDS011;27051;50.376;19.152;2022-08-01T06:53:14;22.25;;;11.57;;
41305;SDS011;27051;50.376;19.152;2022-08-01T06:55:41;20.15;;;11.05;;
41305;SDS011;27051;50.376;19.152;2022-08-01T06:58:08;17.85;;;10.88;;
41305;SDS011;27051;50.376;19.152;2022-08-01T07:00:34;16.75;;;9.90;;
41305;SDS011;27051;50.376;19.152;2022-08-01T07:03:01;15.65;;;9.80;;
41305;SDS011;27051;50.376;19.152;2022-08-01T07:05:27;16.17;;;8.65;;
41305;SDS011;27051;50.376;19.152;2022-08-01T07:07:54;15.95;;;8.60;;
41305;SDS011;27051;50.376;19.152;2022-08-01T07:10:21;17.27;;;7.17;;
41305;SDS011;27051;50.376;19.152;2022-08-01T07:12:47;15.93;;;8.03;;
41305;SDS011;27051;50.376;19.152;2022-08-01T07:15:14;15.78;;;7.67;;
41305;SDS011;27051;50.376;19.152;2022-08-01T07:17:41;13.65;;;7.45;;
41305;SDS011;27051;50.376;19.152;2022-08-01T07:20:10;13.25;;;6.60;;
41305;SDS011;27051;50.376;19.152;2022-08-01T07:22:38;14.38;;;7.08;;
41305;SDS011;27051;50.376;19.152;2022-08-01T07:25:06;10.40;;;6.28;;
41305;SDS011;27051;50.376;19.152;2022-08-01T07:27:34;12.88;;;6.10;;
41305;SDS011;27051;50.376;19.152;2022-08-01T07:30:03;10.75;;;6.17;;
41305;SDS011;27051;50.376;19.152;2022-08-01T07:32:32;15.43;;;6.60;;
41305;SDS011;27051;50.376;19.152;2022-08-01T07:34:59;13.30;;;6.28;;
41305;SDS011;27051;50.376;19.152;2022-08-01T07:37:26;12.13;;;5.80;;
41305;SDS011;27051;50.376;19.152;2022-08-01T07:39:52;10.68;;;5.95;;
41305;SDS011;27051;50.376;19.152;2022-08-01T07:42:19;12.63;;;6.35;;
41305;SDS011;27051;50.376;19.152;2022-08-01T07:44:45;11.48;;;5.40;;
41305;SDS011;27051;50.376;19.152;2022-08-01T07:47:12;9.83;;;5.25;;
41305;SDS011;27051;50.376;19.152;2022-08-01T07:49:39;13.15;;;6.12;;
41305;SDS011;27051;50.376;19.152;2022-08-01T07:52:05;10.50;;;5.80;;
41305;SDS011;27051;50.376;19.152;2022-08-01T07:54:33;10.25;;;5.35;;
41305;SDS011;27051;50.376;19.152;2022-08-01T07:57:01;10.28;;;5.25;;
41305;SDS011;27051;50.376;19.152;2022-08-01T07:59:29;13.40;;;5.83;;
41305;SDS011;27051;50.376;19.152;2022-08-01T08:01:56;11.70;;;6.10;;
41305;SDS011;27051;50.376;19.152;2022-08-01T08:04:23;12.40;;;5.53;;
41305;SDS011;27051;50.376;19.152;2022-08-01T08:06:49;11.20;;;5.33;;
41305;SDS011;27051;50.376;19.152;2022-08-01T08:09:16;10.55;;;4.78;;
41305;SDS011;27051;50.376;19.152;2022-08-01T08:11:43;8.73;;;5.10;;
41305;SDS011;27051;50.376;19.152;2022-08-01T08:14:12;9.95;;;5.50;;
41305;SDS011;27051;50.376;19.152;2022-08-01T08:16:38;9.23;;;5.40;;
41305;SDS011;27051;50.376;19.152;2022-08-01T08:19:05;12.45;;;5.53;;
41305;SDS011;27051;50.376;19.152;2022-08-01T08:21:32;10.53;;;5.75;;
41305;SDS011;27051;50.376;19.152;2022-08-01T08:24:00;10.15;;;5.58;;
41305;SDS011;27051;50.376;19.152;2022-08-01T08:26:26;8.65;;;4.80;;
41305;SDS011;27051;50.376;19.152;2022-08-01T08:28:53;9.98;;;4.80;;
41305;SDS011;27051;50.376;19.152;2022-08-01T08:31:20;9.88;;;4.75;;
41305;SDS011;27051;50.376;19.152;2022-08-01T08:33:46;10.82;;;4.28;;
41305;SDS011;27051;50.376;19.152;2022-08-01T08:36:13;11.40;;;4.95;;
41305;SDS011;27051;50.376;19.152;2022-08-01T08:38:40;9.93;;;4.55;;
41305;SDS011;27051;50.376;19.152;2022-08-01T08:41:07;6.97;;;4.70;;
41305;SDS011;27051;50.376;19.152;2022-08-01T08:43:35;9.55;;;5.78;;
41305;SDS011;27051;50.376;19.152;2022-08-01T08:46:02;11.03;;;3.95;;
41305;SDS011;27051;50.376;19.152;2022-08-01T08:48:31;8.43;;;4.08;;
41305;SDS011;27051;50.376;19.152;2022-08-01T08:50:59;5.28;;;3.87;;
41305;SDS011;27051;50.376;19.152;2022-08-01T08:53:27;7.28;;;4.22;;
41305;SDS011;27051;50.376;19.152;2022-08-01T08:55:55;5.65;;;3.72;;
41305;SDS011;27051;50.376;19.152;2022-08-01T08:58:24;5.75;;;3.87;;
41305;SDS011;27051;50.376;19.152;2022-08-01T09:00:54;8.30;;;4.17;;
41305;SDS011;27051;50.376;19.152;2022-08-01T09:03:21;6.55;;;4.00;;
41305;SDS011;27051;50.376;19.152;2022-08-01T09:05:59;8.03;;;3.62;;
41305;SDS011;27051;50.376;19.152;2022-08-01T09:08:26;6.40;;;4.03;;
41305;SDS011;27051;50.376;19.152;2022-08-01T09:10:53;5.50;;;3.90;;
41305;SDS011;27051;50.376;19.152;2022-08-01T09:13:21;5.53;;;4.20;;
41305;SDS011;27051;50.376;19.152;2022-08-01T09:15:49;6.65;;;4.45;;
41305;SDS011;27051;50.376;19.152;2022-08-01T09:18:29;9.25;;;4.10;;
41305;SDS011;27051;50.376;19.152;2022-08-01T09:23:48;7.53;;;3.90;;
41305;SDS011;27051;50.376;19.152;2022-08-01T09:26:18;10.75;;;4.85;;
41305;SDS011;27051;50.376;19.152;2022-08-01T09:28:48;6.47;;;3.80;;
41305;SDS011;27051;50.376;19.152;2022-08-01T09:31:15;10.23;;;3.90;;
41305;SDS011;27051;50.376;19.152;2022-08-01T09:33:49;7.10;;;3.53;;
41305;SDS011;27051;50.376;19.152;2022-08-01T09:36:26;7.72;;;3.98;;
41305;SDS011;27051;50.376;19.152;2022-08-01T09:39:13;8.93;;;4.05;;
41305;SDS011;27051;50.376;19.152;2022-08-01T09:41:41;8.13;;;3.72;;
41305;SDS011;27051;50.376;19.152;2022-08-01T09:44:08;7.20;;;3.72;;
41305;SDS011;27051;50.376;19.152;2022-08-01T09:46:52;7.87;;;3.45;;
41305;SDS011;27051;50.376;19.152;2022-08-01T09:49:35;6.25;;;3.87;;
41305;SDS011;27051;50.376;19.152;2022-08-01T09:52:17;7.67;;;3.58;;
41305;SDS011;27051;50.376;19.152;2022-08-01T09:54:58;6.45;;;3.98;;
41305;SDS011;27051;50.376;19.152;2022-08-01T09:57:32;5.90;;;3.42;;
41305;SDS011;27051;50.376;19.152;2022-08-01T10:00:00;4.87;;;3.50;;
41305;SDS011;27051;50.376;19.152;2022-08-01T10:02:32;7.60;;;4.40;;
41305;SDS011;27051;50.376;19.152;2022-08-01T10:05:03;6.47;;;3.70;;
41305;SDS011;27051;50.376;19.152;2022-08-01T10:07:34;4.95;;;3.67;;
41305;SDS011;27051;50.376;19.152;2022-08-01T10:10:14;8.58;;;4.28;;
41305;SDS011;27051;50.376;19.152;2022-08-01T10:12:40;5.45;;;3.80;;
41305;SDS011;27051;50.376;19.152;2022-08-01T10:15:09;6.67;;;3.90;;
41305;SDS011;27051;50.376;19.152;2022-08-01T10:17:47;10.30;;;4.35;;
41305;SDS011;27051;50.376;19.152;2022-08-01T10:20:18;5.78;;;4.10;;
41305;SDS011;27051;50.376;19.152;2022-08-01T10:22:47;8.83;;;4.47;;
41305;SDS011;27051;50.376;19.152;2022-08-01T10:25:16;8.38;;;4.05;;
41305;SDS011;27051;50.376;19.152;2022-08-01T10:27:48;8.55;;;4.50;;
41305;SDS011;27051;50.376;19.152;2022-08-01T10:30:16;6.93;;;4.20;;
41305;SDS011;27051;50.376;19.152;2022-08-01T10:32:42;11.20;;;4.87;;
41305;SDS011;27051;50.376;19.152;2022-08-01T10:35:11;8.18;;;4.42;;
41305;SDS011;27051;50.376;19.152;2022-08-01T10:37:38;7.05;;;4.35;;
41305;SDS011;27051;50.376;19.152;2022-08-01T10:40:06;8.75;;;4.85;;
41305;SDS011;27051;50.376;19.152;2022-08-01T10:42:34;10.13;;;4.87;;
41305;SDS011;27051;50.376;19.152;2022-08-01T10:45:02;8.08;;;5.12;;
41305;SDS011;27051;50.376;19.152;2022-08-01T10:47:37;18.32;;;5.20;;
41305;SDS011;27051;50.376;19.152;2022-08-01T10:58:29;8.45;;;5.40;;
41305;SDS011;27051;50.376;19.152;2022-08-01T11:04:08;6.12;;;4.78;;
41305;SDS011;27051;50.376;19.152;2022-08-01T11:06:41;6.87;;;4.80;;
41305;SDS011;27051;50.376;19.152;2022-08-01T11:12:12;9.75;;;4.85;;
41305;SDS011;27051;50.376;19.152;2022-08-01T11:17:36;16.10;;;5.20;;
41305;SDS011;27051;50.376;19.152;2022-08-01T11:30:47;9.28;;;5.60;;
41305;SDS011;27051;50.376;19.152;2022-08-01T11:38:47;8.68;;;5.10;;
41305;SDS011;27051;50.376;19.152;2022-08-01T11:41:33;7.42;;;5.33;;
41305;SDS011;27051;50.376;19.152;2022-08-01T11:44:02;6.83;;;4.70;;
41305;SDS011;27051;50.376;19.152;2022-08-01T11:46:57;8.40;;;4.65;;
41305;SDS011;27051;50.376;19.152;2022-08-01T11:52:23;8.60;;;4.40;;
41305;SDS011;27051;50.376;19.152;2022-08-01T11:57:32;5.33;;;3.85;;
41305;SDS011;27051;50.376;19.152;2022-08-01T12:00:00;6.00;;;3.80;;
41305;SDS011;27051;50.376;19.152;2022-08-01T12:02:42;8.10;;;4.30;;
41305;SDS011;27051;50.376;19.152;2022-08-01T12:05:12;7.87;;;4.20;;
41305;SDS011;27051;50.376;19.152;2022-08-01T12:07:42;6.08;;;4.10;;
41305;SDS011;27051;50.376;19.152;2022-08-01T12:10:12;6.72;;;3.90;;
41305;SDS011;27051;50.376;19.152;2022-08-01T12:12:43;5.25;;;3.80;;
41305;SDS011;27051;50.376;19.152;2022-08-01T12:15:16;4.03;;;3.50;;
41305;SDS011;27051;50.376;19.152;2022-08-01T12:17:46;5.33;;;3.87;;
41305;SDS011;27051;50.376;19.152;2022-08-01T12:20:16;6.33;;;3.22;;
41305;SDS011;27051;50.376;19.152;2022-08-01T12:22:53;5.78;;;3.45;;
41305;SDS011;27051;50.376;19.152;2022-08-01T12:25:21;12.35;;;4.35;;
41305;SDS011;27051;50.376;19.152;2022-08-01T12:27:48;7.30;;;4.25;;
41305;SDS011;27051;50.376;19.152;2022-08-01T12:30:17;9.25;;;3.90;;
41305;SDS011;27051;50.376;19.152;2022-08-01T12:32:48;4.40;;;3.27;;
41305;SDS011;27051;50.376;19.152;2022-08-01T12:35:16;7.37;;;4.12;;
41305;SDS011;27051;50.376;19.152;2022-08-01T12:37:47;5.10;;;3.37;;
41305;SDS011;27051;50.376;19.152;2022-08-01T12:40:21;4.53;;;3.37;;
41305;SDS011;27051;50.376;19.152;2022-08-01T12:42:56;5.10;;;3.02;;
41305;SDS011;27051;50.376;19.152;2022-08-01T12:45:26;3.70;;;3.10;;
41305;SDS011;27051;50.376;19.152;2022-08-01T12:48:06;5.92;;;3.67;;
41305;SDS011;27051;50.376;19.152;2022-08-01T12:50:36;7.10;;;3.12;;
41305;SDS011;27051;50.376;19.152;2022-08-01T12:55:32;6.58;;;3.47;;
41305;SDS011;27051;50.376;19.152;2022-08-01T12:58:09;6.22;;;3.77;;
41305;SDS011;27051;50.376;19.152;2022-08-01T13:00:39;5.95;;;3.98;;
41305;SDS011;27051;50.376;19.152;2022-08-01T13:08:22;6.58;;;3.55;;
41305;SDS011;27051;50.376;19.152;2022-08-01T13:11:00;5.70;;;3.85;;
41305;SDS011;27051;50.376;19.152;2022-08-01T13:13:37;7.08;;;3.70;;
41305;SDS011;27051;50.376;19.152;2022-08-01T13:16:09;6.28;;;3.25;;
41305;SDS011;27051;50.376;19.152;2022-08-01T13:18:37;5.85;;;3.17;;
41305;SDS011;27051;50.376;19.152;2022-08-01T13:23:42;3.85;;;3.05;;
41305;SDS011;27051;50.376;19.152;2022-08-01T13:29:29;7.10;;;3.77;;
41305;SDS011;27051;50.376;19.152;2022-08-01T13:32:15;4.40;;;3.12;;
41305;SDS011;27051;50.376;19.152;2022-08-01T13:34:45;4.90;;;3.17;;
41305;SDS011;27051;50.376;19.152;2022-08-01T13:37:13;5.30;;;2.90;;
41305;SDS011;27051;50.376;19.152;2022-08-01T13:39:43;5.12;;;3.30;;
41305;SDS011;27051;50.376;19.152;2022-08-01T13:42:12;6.40;;;3.45;;
41305;SDS011;27051;50.376;19.152;2022-08-01T13:44:41;7.72;;;3.60;;
41305;SDS011;27051;50.376;19.152;2022-08-01T13:47:09;5.83;;;3.20;;
41305;SDS011;27051;50.376;19.152;2022-08-01T13:49:36;5.10;;;3.20;;
41305;SDS011;27051;50.376;19.152;2022-08-01T13:52:04;6.45;;;3.20;;
41305;SDS011;27051;50.376;19.152;2022-08-01T13:56:59;5.67;;;3.10;;
41305;SDS011;27051;50.376;19.152;2022-08-01T13:59:26;3.90;;;3.02;;
41305;SDS011;27051;50.376;19.152;2022-08-01T14:01:53;2.80;;;2.40;;
41305;SDS011;27051;50.376;19.152;2022-08-01T14:04:21;2.77;;;2.58;;
41305;SDS011;27051;50.376;19.152;2022-08-01T14:06:47;4.30;;;2.80;;
41305;SDS011;27051;50.376;19.152;2022-08-01T14:09:14;4.95;;;2.47;;
41305;SDS011;27051;50.376;19.152;2022-08-01T14:11:42;4.05;;;2.95;;
41305;SDS011;27051;50.376;19.152;2022-08-01T14:14:09;5.22;;;2.83;;
41305;SDS011;27051;50.376;19.152;2022-08-01T14:16:36;4.15;;;3.08;;
41305;SDS011;27051;50.376;19.152;2022-08-01T14:19:09;3.10;;;2.80;;
41305;SDS011;27051;50.376;19.152;2022-08-01T14:25:16;5.92;;;3.15;;
41305;SDS011;27051;50.376;19.152;2022-08-01T14:27:44;5.10;;;3.20;;
41305;SDS011;27051;50.376;19.152;2022-08-01T14:30:12;5.58;;;3.20;;
41305;SDS011;27051;50.376;19.152;2022-08-01T14:32:39;6.85;;;3.08;;
41305;SDS011;27051;50.376;19.152;2022-08-01T14:35:06;5.97;;;3.47;;
41305;SDS011;27051;50.376;19.152;2022-08-01T14:37:33;5.83;;;3.42;;
41305;SDS011;27051;50.376;19.152;2022-08-01T14:40:00;5.20;;;3.37;;
41305;SDS011;27051;50.376;19.152;2022-08-01T14:42:29;6.03;;;3.50;;
41305;SDS011;27051;50.376;19.152;2022-08-01T14:44:55;6.42;;;3.52;;
41305;SDS011;27051;50.376;19.152;2022-08-01T14:47:22;6.08;;;3.20;;
41305;SDS011;27051;50.376;19.152;2022-08-01T14:49:49;6.87;;;3.70;;
41305;SDS011;27051;50.376;19.152;2022-08-01T14:52:16;5.75;;;3.75;;
41305;SDS011;27051;50.376;19.152;2022-08-01T14:54:43;5.15;;;3.58;;
41305;SDS011;27051;50.376;19.152;2022-08-01T14:57:10;4.97;;;3.65;;
41305;SDS011;27051;50.376;19.152;2022-08-01T14:59:37;4.05;;;3.62;;
41305;SDS011;27051;50.376;19.152;2022-08-01T15:02:04;5.60;;;4.00;;
41305;SDS011;27051;50.376;19.152;2022-08-01T15:04:30;8.00;;;3.55;;
41305;SDS011;27051;50.376;19.152;2022-08-01T15:06:57;5.92;;;3.50;;
41305;SDS011;27051;50.376;19.152;2022-08-01T15:09:24;5.75;;;3.62;;
41305;SDS011;27051;50.376;19.152;2022-08-01T15:11:51;7.40;;;3.80;;
41305;SDS011;27051;50.376;19.152;2022-08-01T15:14:18;4.20;;;3.50;;
41305;SDS011;27051;50.376;19.152;2022-08-01T15:16:44;4.10;;;3.70;;
41305;SDS011;27051;50.376;19.152;2022-08-01T15:19:11;6.33;;;4.42;;
41305;SDS011;27051;50.376;19.152;2022-08-01T15:21:38;4.83;;;3.67;;
41305;SDS011;27051;50.376;19.152;2022-08-01T15:24:06;8.25;;;3.92;;
41305;SDS011;27051;50.376;19.152;2022-08-01T15:26:34;9.65;;;4.33;;
41305;SDS011;27051;50.376;19.152;2022-08-01T15:29:02;7.15;;;4.20;;
41305;SDS011;27051;50.376;19.152;2022-08-01T15:31:29;4.95;;;3.95;;
41305;SDS011;27051;50.376;19.152;2022-08-01T15:33:57;11.22;;;5.37;;
41305;SDS011;27051;50.376;19.152;2022-08-01T15:36:24;8.13;;;4.33;;
41305;SDS011;27051;50.376;19.152;2022-08-01T15:38:51;5.97;;;4.22;;
41305;SDS011;27051;50.376;19.152;2022-08-01T15:41:18;7.55;;;4.28;;
41305;SDS011;27051;50.376;19.152;2022-08-01T15:43:45;7.50;;;5.08;;
41305;SDS011;27051;50.376;19.152;2022-08-01T15:46:12;5.90;;;4.15;;
41305;SDS011;27051;50.376;19.152;2022-08-01T15:48:39;7.50;;;4.15;;
41305;SDS011;27051;50.376;19.152;2022-08-01T15:51:06;7.83;;;4.70;;
41305;SDS011;27051;50.376;19.152;2022-08-01T15:53:32;5.58;;;4.95;;